Time;durP1;ratioP1;P1;durP2;ratioP2;P2;SDS_P1;SDS_P2;PMS_P1;PMS_P2;Temp;Humidity;BMP_temperature;BMP_pressure;BME280_temperature;BME280_humidity;BME280_pressure;Samples;Min_cycle;Max_cycle;Signal;HPM_P1;HPM_P2
2023/07/17 00:04:51;;;;;;;10.10;3.50;;;;;;;17.54;71.62;100485.77;224089;1264;138935;-85
2023/07/17 00:09:52;;;;;;;9.70;3.90;;;;;;;17.50;72.35;100486.09;223433;1264;141373;-84
2023/07/17 00:14:52;;;;;;;8.40;4.00;;;;;;;17.44;72.39;100485.77;224066;1264;138821;-84
2023/07/17 00:19:57;;;;;;;10.20;4.90;;;;;;;17.40;72.58;100483.61;223680;1264;141791;-84
2023/07/17 00:24:57;;;;;;;12.50;3.90;;;;;;;17.34;73.10;100483.92;224109;1264;111591;-85
2023/07/17 00:29:58;;;;;;;11.20;3.90;;;;;;;17.28;73.24;100491.00;223558;1264;141869;-85
2023/07/17 00:34:58;;;;;;;9.40;4.50;;;;;;;17.22;73.70;100486.80;224069;1264;138944;-85
2023/07/17 00:39:58;;;;;;;9.60;4.60;;;;;;;17.13;73.35;100489.08;223556;1264;141800;-85
2023/07/17 00:44:59;;;;;;;9.40;3.90;;;;;;;17.07;74.14;100487.73;224025;1264;139370;-85
2023/07/17 00:50:00;;;;;;;9.80;4.00;;;;;;;17.01;74.59;100476.94;223573;1264;141970;-84
2023/07/17 00:55:01;;;;;;;7.00;3.20;;;;;;;16.96;74.79;100464.69;224223;1263;95933;-85
2023/07/17 01:00:04;;;;;;;8.90;4.00;;;;;;;16.92;74.64;100457.85;223603;1264;140846;-85
2023/07/17 01:05:05;;;;;;;7.70;3.70;;;;;;;16.85;74.94;100456.75;224052;1264;138841;-85
2023/07/17 01:10:06;;;;;;;8.20;3.60;;;;;;;16.79;75.11;100453.91;223548;1264;140993;-85
2023/07/17 01:15:07;;;;;;;7.10;3.20;;;;;;;16.74;75.01;100457.63;224104;1264;138752;-85
2023/07/17 01:20:10;;;;;;;9.90;3.40;;;;;;;16.72;74.35;100462.48;223588;1264;141088;-85
2023/07/17 01:25:10;;;;;;;8.80;3.60;;;;;;;16.70;75.57;100464.60;224151;1264;112066;-85
2023/07/17 01:30:11;;;;;;;10.00;4.50;;;;;;;16.64;75.94;100464.19;223595;1264;140864;-85
2023/07/17 01:35:11;;;;;;;8.00;3.70;;;;;;;16.60;76.34;100468.52;224120;1264;139429;-84
2023/07/17 01:40:14;;;;;;;8.20;3.40;;;;;;;16.55;76.89;100463.27;223525;1264;141072;-85
2023/07/17 01:45:15;;;;;;;9.10;4.20;;;;;;;16.54;75.71;100466.93;224037;1264;139298;-85
2023/07/17 01:50:15;;;;;;;7.50;3.60;;;;;;;16.52;76.93;100476.00;223531;1264;141688;-85
2023/07/17 01:55:16;;;;;;;8.70;3.90;;;;;;;16.47;77.25;100478.15;224209;1264;95837;-85
2023/07/17 02:00:17;;;;;;;8.90;3.80;;;;;;;16.45;76.17;100483.96;223573;1264;140714;-84
2023/07/17 02:05:18;;;;;;;13.20;4.40;;;;;;;16.45;77.79;100483.16;224079;1264;138694;-84
2023/07/17 02:10:18;;;;;;;8.30;3.30;;;;;;;16.43;78.30;100484.46;223387;1264;234577;-85
2023/07/17 02:15:19;;;;;;;10.30;4.40;;;;;;;16.43;77.41;100486.83;224083;1264;139380;-85
2023/07/17 02:20:20;;;;;;;12.40;4.40;;;;;;;16.47;78.57;100490.91;223588;1264;141780;-85
2023/07/17 02:25:20;;;;;;;9.50;4.30;;;;;;;16.54;79.71;100496.00;224145;1264;110755;-85
2023/07/17 02:30:21;;;;;;;8.30;3.40;;;;;;;16.60;79.31;100504.64;223551;1264;141502;-85
2023/07/17 02:35:21;;;;;;;8.90;3.90;;;;;;;16.65;79.34;100509.05;224031;1264;138679;-85
2023/07/17 02:40:21;;;;;;;10.90;4.70;;;;;;;16.73;80.10;100514.24;223567;1264;142149;-85
2023/07/17 02:45:22;;;;;;;8.10;3.80;;;;;;;16.82;80.53;100515.16;224066;1264;139589;-85
2023/07/17 02:50:22;;;;;;;11.70;4.20;;;;;;;16.89;79.81;100513.89;223523;1264;141015;-85
2023/07/17 02:55:23;;;;;;;9.30;5.00;;;;;;;16.95;79.36;100518.50;224202;1264;95744;-85
2023/07/17 03:00:25;;;;;;;9.10;4.20;;;;;;;17.04;80.19;100528.08;223578;1264;141645;-85
2023/07/17 03:05:25;;;;;;;12.90;5.40;;;;;;;17.12;79.83;100525.64;224023;1264;139023;-85
2023/07/17 03:10:26;;;;;;;10.60;4.70;;;;;;;17.20;79.70;100536.20;223525;1264;141385;-85
2023/07/17 03:15:27;;;;;;;9.60;4.30;;;;;;;17.29;79.08;100540.98;224166;1264;139550;-84
2023/07/17 03:20:27;;;;;;;10.30;5.10;;;;;;;17.37;79.51;100542.79;223546;1265;208794;-86
2023/07/17 03:25:28;;;;;;;11.80;5.90;;;;;;;17.44;79.31;100538.57;224246;1264;95919;-85
2023/07/17 03:30:28;;;;;;;10.80;5.20;;;;;;;17.52;79.34;100535.98;223605;1264;141674;-85
2023/07/17 03:35:28;;;;;;;10.60;4.50;;;;;;;17.59;79.54;100532.20;224102;1264;138808;-85
2023/07/17 03:40:29;;;;;;;10.50;4.50;;;;;;;17.67;79.47;100538.77;223595;1264;140815;-85
2023/07/17 03:45:30;;;;;;;9.20;4.80;;;;;;;17.74;78.80;100539.67;224152;1264;138844;-85
2023/07/17 03:50:31;;;;;;;12.60;5.90;;;;;;;17.82;78.89;100541.86;223622;1264;140347;-85
2023/07/17 03:55:32;;;;;;;11.30;5.00;;;;;;;17.91;79.17;100537.16;224162;1264;96721;-85
2023/07/17 04:00:33;;;;;;;10.80;5.50;;;;;;;17.99;79.79;100533.85;223565;1264;141817;-85
2023/07/17 04:05:33;;;;;;;10.50;5.00;;;;;;;18.06;79.11;100534.68;224097;1264;138993;-84
2023/07/17 04:10:33;;;;;;;9.10;4.40;;;;;;;18.13;78.73;100522.94;223569;1264;140834;-85
2023/07/17 04:15:36;;;;;;;13.10;4.80;;;;;;;18.19;78.81;100524.02;224117;1264;138691;-84
2023/07/17 04:20:39;;;;;;;13.30;5.10;;;;;;;18.26;79.11;100516.17;223544;1264;140889;-85
2023/07/17 04:25:40;;;;;;;10.20;4.90;;;;;;;18.34;78.36;100506.09;224199;1264;97122;-85
2023/07/17 04:30:40;;;;;;;10.00;4.60;;;;;;;18.45;78.78;100507.38;223615;1264;141415;-84
2023/07/17 04:35:41;;;;;;;12.00;4.70;;;;;;;18.56;79.11;100516.95;224032;1264;138631;-85
2023/07/17 04:40:41;;;;;;;12.60;4.80;;;;;;;18.67;79.92;100512.52;223602;1264;142341;-84
2023/07/17 04:45:42;;;;;;;10.10;4.60;;;;;;;18.76;80.38;100510.26;223959;1264;139495;-85
2023/07/17 04:50:46;;;;;;;12.00;5.70;;;;;;;18.88;80.18;100501.57;223564;1264;142510;-85
2023/07/17 04:55:48;;;;;;;11.40;5.00;;;;;;;19.00;78.54;100508.55;224221;1264;95841;-85
2023/07/17 05:00:48;;;;;;;11.40;4.80;;;;;;;19.12;78.83;100514.88;223455;1264;140593;-85
2023/07/17 05:05:50;;;;;;;9.60;4.90;;;;;;;19.24;80.02;100511.93;224037;1264;139169;-85
2023/07/17 05:10:55;;;;;;;26.20;7.30;;;;;;;19.36;78.35;100510.77;223499;1264;141542;-85
2023/07/17 05:15:55;;;;;;;22.60;7.20;;;;;;;19.55;76.38;100512.64;224044;1264;138927;-85
2023/07/17 05:20:56;;;;;;;24.40;6.20;;;;;;;19.80;74.81;100504.93;223571;1265;140588;-84
2023/07/17 05:25:58;;;;;;;17.20;5.70;;;;;;;20.04;74.44;100504.64;224251;1264;96037;-85
2023/07/17 05:30:58;;;;;;;20.20;5.20;;;;;;;20.33;72.40;100504.01;223725;1264;143490;-84
2023/07/17 05:35:59;;;;;;;13.90;4.30;;;;;;;20.77;70.15;100512.20;224151;1264;140126;-83
2023/07/17 05:41:00;;;;;;;17.20;5.30;;;;;;;21.39;67.68;100509.73;223582;1264;142911;-85
2023/07/17 05:46:01;;;;;;;17.80;4.30;;;;;;;22.15;66.01;100513.72;224031;1264;138863;-86
2023/07/17 05:51:02;;;;;;;12.80;4.70;;;;;;;23.01;65.94;100514.27;223530;1264;140025;-86
2023/07/17 05:56:02;;;;;;;12.60;4.70;;;;;;;23.87;60.94;100518.34;224106;1264;138198;-86
2023/07/17 06:01:03;;;;;;;12.70;4.30;;;;;;;24.70;58.41;100518.48;223686;1264;139879;-86
2023/07/17 06:06:03;;;;;;;10.10;3.90;;;;;;;25.38;57.65;100510.65;224096;1264;138084;-86
2023/07/17 06:11:04;;;;;;;9.40;3.60;;;;;;;26.12;55.64;100513.65;223549;1264;140750;-85
2023/07/17 06:16:05;;;;;;;11.70;4.00;;;;;;;26.82;52.24;100512.02;224121;1264;138021;-87
2023/07/17 06:21:05;;;;;;;9.50;3.90;;;;;;;27.42;51.38;100513.29;223476;1264;139860;-87
2023/07/17 06:26:06;;;;;;;7.60;3.40;;;;;;;27.96;50.49;100514.20;224066;1264;138139;-87
2023/07/17 06:31:07;;;;;;;7.60;3.70;;;;;;;28.58;48.04;100520.78;223680;1265;141015;-89
2023/07/17 06:36:07;;;;;;;8.90;3.80;;;;;;;29.00;45.60;100518.31;224074;1264;138256;-89
2023/07/17 06:41:08;;;;;;;13.30;3.90;;;;;;;29.09;43.11;100521.18;223514;1264;140233;-88
2023/07/17 06:46:09;;;;;;;10.30;3.80;;;;;;;29.17;42.84;100517.04;224112;1264;138404;-89
2023/07/17 06:51:10;;;;;;;10.20;3.60;;;;;;;29.51;42.66;100508.14;223730;1264;141830;-90
2023/07/17 06:56:11;;;;;;;9.40;3.80;;;;;;;29.79;41.14;100504.53;224121;1264;138461;-90
2023/07/17 07:01:14;;;;;;;8.40;3.80;;;;;;;29.99;38.91;100502.36;223576;1264;142161;-90
2023/07/17 07:06:14;;;;;;;8.90;3.60;;;;;;;30.05;38.55;100502.87;224077;1264;138203;-89
2023/07/17 07:11:15;;;;;;;8.10;3.70;;;;;;;30.36;37.66;100497.23;223523;1265;140740;-89
2023/07/17 07:16:16;;;;;;;8.30;3.40;;;;;;;30.53;35.70;100501.84;224097;1264;138030;-91
2023/07/17 07:21:17;;;;;;;10.60;3.30;;;;;;;30.67;36.34;100498.58;223571;1264;140066;-89
2023/07/17 07:26:17;;;;;;;9.70;3.50;;;;;;;30.87;34.73;100498.90;224007;1264;138990;-89
2023/07/17 07:31:18;;;;;;;12.10;3.50;;;;;;;30.96;34.18;100500.98;223626;1264;139933;-88
2023/07/17 07:36:18;;;;;;;8.80;3.80;;;;;;;31.17;34.99;100497.59;224138;1264;138599;-88
2023/07/17 07:41:19;;;;;;;8.00;3.10;;;;;;;31.42;34.02;100494.95;223622;1264;140597;-87
2023/07/17 07:46:19;;;;;;;7.50;3.30;;;;;;;31.56;32.93;100492.25;224104;1264;138288;-87
2023/07/17 07:51:19;;;;;;;11.40;3.70;;;;;;;31.40;33.14;100485.76;223627;1264;141349;-88
2023/07/17 07:56:20;;;;;;;9.60;3.60;;;;;;;31.42;33.29;100475.61;224120;1264;139356;-89
2023/07/17 08:01:20;;;;;;;7.80;3.10;;;;;;;31.43;32.94;100476.90;223756;1264;140517;-89
2023/07/17 08:06:23;;;;;;;7.70;3.40;;;;;;;31.43;32.76;100481.30;224204;1264;137954;-88
2023/07/17 08:11:27;;;;;;;7.90;3.70;;;;;;;31.28;31.61;100481.94;223557;1264;139741;-87
2023/07/17 08:16:28;;;;;;;7.00;3.40;;;;;;;31.43;32.12;100490.40;224064;1264;138189;-90
2023/07/17 08:21:28;;;;;;;10.30;3.10;;;;;;;31.80;31.27;100493.52;223546;1265;140854;-90
2023/07/17 08:26:29;;;;;;;6.80;3.00;;;;;;;32.11;29.87;100494.92;224197;1264;138848;-88
2023/07/17 08:31:31;;;;;;;6.90;2.90;;;;;;;32.26;30.39;100493.58;223629;1264;140034;-89
2023/07/17 08:36:32;;;;;;;8.30;3.00;;;;;;;32.45;29.96;100491.07;224204;1264;137786;-92
2023/07/17 08:41:34;;;;;;;8.80;3.00;;;;;;;32.72;29.88;100488.38;223745;1264;140024;-86
2023/07/17 08:46:35;;;;;;;8.70;3.40;;;;;;;32.99;29.69;100493.96;224030;1265;136981;-87
2023/07/17 08:51:36;;;;;;;7.90;3.50;;;;;;;33.31;29.28;100495.90;223610;1264;144045;-87
2023/07/17 08:56:37;;;;;;;8.70;3.40;;;;;;;33.18;28.35;100500.13;224043;1264;138220;-89
2023/07/17 09:01:37;;;;;;;8.40;3.40;;;;;;;32.91;28.61;100496.40;223667;1264;140096;-89
2023/07/17 09:06:38;;;;;;;9.80;3.80;;;;;;;32.79;28.93;100494.05;224070;1264;138096;-89
2023/07/17 09:11:41;;;;;;;9.90;3.70;;;;;;;32.94;29.35;100492.48;223670;1265;140007;-89
2023/07/17 09:16:41;;;;;;;9.20;4.10;;;;;;;33.10;29.12;100497.10;224115;1265;138833;-88
2023/07/17 09:21:42;;;;;;;9.70;4.20;;;;;;;33.02;29.22;100501.56;223639;1264;140573;-87
2023/07/17 09:26:42;;;;;;;9.10;3.80;;;;;;;32.72;28.56;100504.56;224183;1265;140053;-88
2023/07/17 09:31:43;;;;;;;9.00;4.10;;;;;;;32.58;29.47;100502.55;223709;1264;140321;-88
2023/07/17 09:36:44;;;;;;;9.20;4.20;;;;;;;32.57;29.60;100491.52;224154;1265;137858;-87
2023/07/17 09:41:44;;;;;;;8.30;3.60;;;;;;;32.88;30.42;100488.64;223209;1266;412621;-91
2023/07/17 09:46:46;;;;;;;8.60;4.00;;;;;;;33.30;29.98;100486.30;224132;1266;138434;-91
2023/07/17 09:51:47;;;;;;;8.90;4.10;;;;;;;33.79;29.63;100489.48;223566;1264;139445;-88
2023/07/17 09:56:49;;;;;;;10.20;4.40;;;;;;;34.17;28.40;100494.98;224121;1264;138413;-89
2023/07/17 10:01:54;;;;;;;9.50;3.80;;;;;;;34.16;27.87;100492.37;223750;1268;140017;-88
2023/07/17 10:06:57;;;;;;;14.20;4.90;;;;;;;34.14;27.58;100486.64;224148;1264;138497;-88
2023/07/17 10:11:58;;;;;;;8.90;3.80;;;;;;;33.88;27.58;100490.56;223638;1265;140560;-90
2023/07/17 10:16:59;;;;;;;9.70;4.10;;;;;;;33.76;28.07;100489.29;224158;1264;138941;-87
2023/07/17 10:21:59;;;;;;;9.10;4.30;;;;;;;33.95;27.54;100484.73;223660;1264;140691;-88
2023/07/17 10:27:01;;;;;;;11.80;4.30;;;;;;;34.06;27.97;100479.92;224077;1264;138544;-89
2023/07/17 10:32:09;;;;;;;10.50;4.40;;;;;;;34.22;28.30;100481.91;223695;1264;140280;-91
2023/07/17 10:37:32;;;;;;;10.00;5.10;;;;;;;34.55;27.49;100475.19;224243;1264;95847;-88
2023/07/17 10:42:34;;;;;;;9.30;4.40;;;;;;;34.62;27.12;100466.83;223553;1266;139463;-89
2023/07/17 10:47:34;;;;;;;8.80;4.20;;;;;;;34.60;26.70;100460.58;224187;1266;137736;-88
2023/07/17 10:52:35;;;;;;;12.80;6.20;;;;;;;34.71;26.97;100458.29;223641;1264;140072;-89
2023/07/17 10:57:37;;;;;;;10.80;5.80;;;;;;;34.96;26.17;100454.05;224131;1266;138365;-89
2023/07/17 11:02:38;;;;;;;12.00;6.70;;;;;;;34.88;25.56;100451.94;223538;1266;141301;-89
2023/07/17 11:07:39;;;;;;;11.10;5.50;;;;;;;34.40;25.30;100450.09;224223;1264;96002;-89
2023/07/17 11:12:40;;;;;;;17.60;11.30;;;;;;;34.13;25.45;100452.67;223561;1265;141177;-88
2023/07/17 11:17:40;;;;;;;12.80;8.90;;;;;;;34.23;25.04;100452.91;224123;1264;138682;-89
2023/07/17 11:22:41;;;;;;;14.20;8.40;;;;;;;33.66;24.61;100449.94;223605;1264;139850;-89
2023/07/17 11:27:42;;;;;;;12.70;8.20;;;;;;;33.36;25.02;100439.37;224151;1264;138231;-91
2023/07/17 11:32:42;;;;;;;14.70;7.70;;;;;;;33.23;24.91;100444.34;223475;1268;139438;-90
2023/07/17 11:37:44;;;;;;;12.00;6.20;;;;;;;33.17;25.26;100442.48;224232;1265;96073;-87
2023/07/17 11:42:55;;;;;;;11.20;5.90;;;;;;;33.36;25.09;100437.27;223562;1264;141465;-88
2023/07/17 11:47:57;;;;;;;11.30;5.80;;;;;;;33.66;24.83;100433.73;223886;1264;138611;-88
2023/07/17 11:53:05;;;;;;;11.60;5.30;;;;;;;33.87;24.90;100432.84;223453;1265;141107;-89
2023/07/17 11:58:22;;;;;;;11.30;5.90;;;;;;;33.96;24.46;100416.90;223935;1266;138303;-88
2023/07/17 12:03:23;;;;;;;9.90;4.90;;;;;;;34.23;25.52;100408.60;223466;1268;140025;-87
2023/07/17 12:08:24;;;;;;;8.60;5.10;;;;;;;34.80;25.52;100407.66;224107;1265;138828;-87
2023/07/17 12:13:24;;;;;;;11.30;5.80;;;;;;;35.13;24.99;100399.15;223765;1265;139310;-87
2023/07/17 12:18:25;;;;;;;12.00;5.40;;;;;;;35.36;24.57;100396.00;224195;1264;139815;-88
2023/07/17 12:23:25;;;;;;;12.90;5.80;;;;;;;35.54;24.78;100391.79;223575;1266;140642;-87
2023/07/17 12:28:31;;;;;;;11.30;6.20;;;;;;;35.72;23.72;100389.29;224186;1264;138168;-86
2023/07/17 12:33:31;;;;;;;8.90;5.20;;;;;;;35.64;24.23;100385.69;223560;1267;141624;-87
2023/07/17 12:38:32;;;;;;;9.80;5.70;;;;;;;35.63;24.29;100384.64;224166;1264;137951;-88
2023/07/17 12:43:32;;;;;;;9.90;5.80;;;;;;;35.71;24.29;100387.86;223635;1268;139645;-83
2023/07/17 12:48:32;;;;;;;11.80;5.40;;;;;;;35.63;23.51;100387.64;224131;1268;139056;-87
2023/07/17 12:53:33;;;;;;;9.80;5.80;;;;;;;35.67;23.87;100372.38;223626;1264;139884;-86
2023/07/17 12:58:34;;;;;;;11.70;6.00;;;;;;;35.69;23.34;100379.01;224094;1264;138583;-87
2023/07/17 13:03:34;;;;;;;8.40;5.00;;;;;;;35.29;23.06;100384.09;223635;1264;140011;-86
2023/07/17 13:08:34;;;;;;;10.90;5.40;;;;;;;35.14;24.38;100383.88;224169;1264;138102;-85
2023/07/17 13:13:35;;;;;;;10.40;5.30;;;;;;;35.11;24.22;100386.90;223701;1268;139680;-85
2023/07/17 13:18:38;;;;;;;13.50;5.80;;;;;;;34.91;23.35;100387.10;224094;1264;138191;-86
2023/07/17 13:23:38;;;;;;;12.10;5.70;;;;;;;34.49;23.29;100392.13;223599;1266;140428;-85
2023/07/17 13:28:39;;;;;;;11.80;5.00;;;;;;;34.14;24.34;100393.55;224179;1264;138288;-87
2023/07/17 13:33:39;;;;;;;9.30;5.00;;;;;;;34.04;24.71;100399.92;223583;1264;140117;-84
2023/07/17 13:38:40;;;;;;;9.60;4.80;;;;;;;33.73;24.97;100404.76;224095;1268;138085;-83
2023/07/17 13:43:40;;;;;;;12.70;5.80;;;;;;;33.75;24.95;100406.81;223729;1264;140307;-87
2023/07/17 13:48:41;;;;;;;10.10;4.70;;;;;;;33.40;24.21;100412.96;224044;1266;139035;-84
2023/07/17 13:53:41;;;;;;;9.90;5.30;;;;;;;33.33;25.44;100412.31;223570;1264;139710;-86
2023/07/17 13:58:42;;;;;;;8.50;5.00;;;;;;;33.53;24.99;100407.11;224080;1264;137929;-82
2023/07/17 14:03:42;;;;;;;7.90;4.70;;;;;;;33.53;25.02;100409.73;223595;1266;140138;-86
2023/07/17 14:08:43;;;;;;;10.70;5.20;;;;;;;33.43;25.13;100411.95;224097;1267;138225;-85
2023/07/17 14:13:43;;;;;;;13.10;4.80;;;;;;;33.43;25.12;100397.31;223550;1267;140867;-84
2023/07/17 14:18:44;;;;;;;9.80;4.60;;;;;;;33.46;25.19;100400.96;223942;1268;139269;-83
2023/07/17 14:23:44;;;;;;;8.40;4.40;;;;;;;33.44;24.74;100400.31;223412;1268;140159;-84
2023/07/17 14:28:45;;;;;;;13.50;4.10;;;;;;;33.26;24.07;100401.11;223999;1264;138261;-86
2023/07/17 14:33:45;;;;;;;9.60;4.30;;;;;;;33.07;24.74;100408.65;223446;1264;139499;-85
2023/07/17 14:38:46;;;;;;;7.50;4.40;;;;;;;33.04;24.33;100406.24;223984;1265;138188;-84
2023/07/17 14:43:46;;;;;;;8.80;3.60;;;;;;;33.05;24.54;100396.17;223580;1265;140237;-83
2023/07/17 14:48:47;;;;;;;8.60;3.90;;;;;;;32.99;24.94;100392.70;224091;1264;138190;-84
2023/07/17 14:53:48;;;;;;;11.20;4.20;;;;;;;32.83;25.04;100394.95;223619;1264;140084;-84
2023/07/17 14:58:49;;;;;;;8.80;3.40;;;;;;;32.71;25.76;100390.48;224061;1264;138189;-82
2023/07/17 15:03:49;;;;;;;8.40;3.60;;;;;;;32.52;24.14;100388.64;223570;1268;139496;-84
2023/07/17 15:08:50;;;;;;;7.90;3.60;;;;;;;32.10;24.43;100377.34;224135;1264;138156;-85
2023/07/17 15:13:51;;;;;;;9.90;3.40;;;;;;;31.79;24.64;100365.49;223682;1264;141127;-84
2023/07/17 15:18:51;;;;;;;8.50;3.90;;;;;;;31.61;25.96;100361.71;224038;1264;137966;-85
2023/07/17 15:23:51;;;;;;;7.70;3.50;;;;;;;31.57;26.56;100357.91;223644;1264;140206;-83
2023/07/17 15:28:52;;;;;;;11.00;4.10;;;;;;;31.57;25.97;100347.55;224108;1264;138650;-84
2023/07/17 15:33:55;;;;;;;8.50;3.70;;;;;;;31.52;25.85;100353.66;223584;1263;141109;-85
2023/07/17 15:38:55;;;;;;;7.30;3.10;;;;;;;31.35;25.82;100348.40;223488;1264;140560;-85
2023/07/17 15:43:55;;;;;;;7.20;3.40;;;;;;;31.16;26.64;100348.67;224228;1264;95907;-85
2023/07/17 15:48:56;;;;;;;8.90;3.60;;;;;;;31.08;26.49;100350.50;223572;1268;139654;-85
2023/07/17 15:53:56;;;;;;;8.30;3.60;;;;;;;30.87;25.77;100341.48;224155;1264;137795;-86
2023/07/17 15:58:58;;;;;;;14.90;4.50;;;;;;;30.63;25.76;100337.14;223542;1264;141057;-85
2023/07/17 16:03:59;;;;;;;10.70;3.90;;;;;;;30.44;26.15;100341.92;224128;1264;138324;-86
2023/07/17 16:09:00;;;;;;;8.50;3.80;;;;;;;30.26;27.00;100341.39;223551;1264;141641;-84
2023/07/17 16:14:00;;;;;;;9.10;3.70;;;;;;;30.13;27.25;100332.32;224097;1264;138490;-85
2023/07/17 16:19:01;;;;;;;10.30;4.30;;;;;;;29.96;27.29;100332.63;223638;1264;139888;-84
2023/07/17 16:24:01;;;;;;;9.30;3.80;;;;;;;29.85;27.52;100333.31;224156;1264;138681;-83
2023/07/17 16:29:03;;;;;;;8.50;4.20;;;;;;;29.71;27.96;100344.42;223581;1264;140228;-84
2023/07/17 16:34:04;;;;;;;10.70;4.00;;;;;;;29.61;27.67;100346.60;224123;1264;138213;-85
2023/07/17 16:39:04;;;;;;;10.40;4.00;;;;;;;29.53;27.82;100348.71;223549;1264;143116;-83
2023/07/17 16:44:04;;;;;;;10.00;4.20;;;;;;;29.40;27.48;100349.55;224072;1264;138429;-83
2023/07/17 16:49:05;;;;;;;9.20;4.10;;;;;;;29.21;28.08;100350.69;223690;1264;141107;-83
2023/07/17 16:54:05;;;;;;;9.90;3.60;;;;;;;29.01;28.70;100353.86;224148;1264;137834;-82
2023/07/17 16:59:06;;;;;;;9.90;4.00;;;;;;;28.88;29.14;100352.29;223547;1264;141011;-83
2023/07/17 17:04:06;;;;;;;10.70;4.70;;;;;;;28.74;29.48;100350.08;224115;1264;138053;-82
2023/07/17 17:09:25;;;;;;;11.80;4.50;;;;;;;28.53;29.67;100352.73;223501;1264;140471;-83
2023/07/17 17:14:25;;;;;;;9.50;4.00;;;;;;;28.39;30.28;100352.02;223924;1266;138372;-83
2023/07/17 17:19:26;;;;;;;13.80;4.90;;;;;;;28.24;30.57;100354.13;223678;1264;140573;-83
2023/07/17 17:24:27;;;;;;;11.20;4.60;;;;;;;28.08;30.95;100353.80;224100;1264;138171;-84
2023/07/17 17:29:27;;;;;;;9.80;4.40;;;;;;;27.89;30.99;100354.10;223592;1264;139880;-84
2023/07/17 17:34:27;;;;;;;8.90;3.90;;;;;;;27.72;31.87;100356.23;224106;1264;138160;-84
2023/07/17 17:39:28;;;;;;;9.20;4.30;;;;;;;27.62;32.15;100361.57;223603;1264;139975;-84
2023/07/17 17:44:28;;;;;;;9.60;4.50;;;;;;;27.43;32.16;100362.14;224129;1264;137679;-87
2023/07/17 17:49:29;;;;;;;11.30;4.50;;;;;;;27.26;32.61;100354.91;223688;1264;141933;-85
2023/07/17 17:54:29;;;;;;;11.80;4.70;;;;;;;27.12;32.76;100359.62;224073;1264;138205;-85
2023/07/17 17:59:30;;;;;;;10.40;4.50;;;;;;;26.95;32.83;100359.25;223442;1264;140950;-86
2023/07/17 18:04:30;;;;;;;10.30;4.20;;;;;;;26.85;32.91;100355.75;224139;1264;139524;-83
2023/07/17 18:09:31;;;;;;;9.90;4.00;;;;;;;26.76;33.80;100362.04;223566;1264;141110;-83
2023/07/17 18:14:31;;;;;;;8.20;4.40;;;;;;;26.67;33.86;100362.73;224116;1264;138276;-83
2023/07/17 18:19:40;;;;;;;12.20;4.50;;;;;;;26.60;34.78;100366.18;223710;1264;140845;-84
2023/07/17 18:24:41;;;;;;;10.00;4.50;;;;;;;26.53;34.59;100364.91;224029;1264;138233;-83
2023/07/17 18:29:41;;;;;;;9.00;4.00;;;;;;;26.42;34.93;100367.11;223534;1264;141170;-83
2023/07/17 18:34:41;;;;;;;9.30;4.20;;;;;;;26.28;35.49;100374.45;224048;1264;138428;-84
2023/07/17 18:39:42;;;;;;;10.80;4.60;;;;;;;26.19;35.90;100379.32;223500;1264;140544;-84
2023/07/17 18:44:44;;;;;;;9.20;3.90;;;;;;;26.11;36.08;100381.77;224134;1264;138397;-84
2023/07/17 18:49:44;;;;;;;11.80;4.10;;;;;;;26.00;36.08;100386.48;223704;1264;141258;-84
2023/07/17 18:54:44;;;;;;;9.00;3.90;;;;;;;25.90;36.48;100385.45;224110;1264;138312;-84
2023/07/17 18:59:45;;;;;;;9.70;4.10;;;;;;;25.80;36.53;100384.98;223437;1264;140914;-83
2023/07/17 19:04:48;;;;;;;9.50;4.40;;;;;;;25.63;36.90;100389.27;224089;1264;138725;-84
2023/07/17 19:09:49;;;;;;;10.30;3.70;;;;;;;25.47;37.16;100398.38;223547;1264;141629;-84
2023/07/17 19:14:52;;;;;;;11.60;4.60;;;;;;;25.33;37.49;100398.86;224095;1264;138341;-84
2023/07/17 19:19:52;;;;;;;11.30;4.80;;;;;;;25.21;37.98;100399.49;223552;1264;139758;-85
2023/07/17 19:24:53;;;;;;;11.30;4.30;;;;;;;25.08;38.31;100412.31;224076;1264;138409;-85
2023/07/17 19:29:53;;;;;;;10.80;4.20;;;;;;;24.90;38.62;100416.81;223585;1264;140114;-85
2023/07/17 19:34:54;;;;;;;8.20;4.20;;;;;;;24.72;38.70;100418.65;224147;1264;138641;-85
2023/07/17 19:39:55;;;;;;;11.90;4.50;;;;;;;24.55;39.31;100422.07;223572;1264;139985;-85
2023/07/17 19:44:55;;;;;;;12.40;4.30;;;;;;;24.40;39.40;100419.61;224077;1264;138136;-85
2023/07/17 19:49:55;;;;;;;16.00;4.50;;;;;;;24.30;39.70;100429.98;223677;1264;141739;-85
2023/07/17 19:54:56;;;;;;;11.90;4.30;;;;;;;24.15;39.95;100430.13;224122;1262;139005;-85
2023/07/17 19:59:56;;;;;;;8.80;3.80;;;;;;;24.03;40.10;100430.67;223552;1263;140108;-84
2023/07/17 20:04:57;;;;;;;9.90;3.60;;;;;;;23.91;40.34;100434.19;223940;1264;138054;-85
2023/07/17 20:09:57;;;;;;;9.70;3.50;;;;;;;23.82;40.67;100429.41;223566;1264;140013;-85
2023/07/17 20:14:58;;;;;;;12.10;3.70;;;;;;;23.74;40.93;100428.90;224107;1264;138113;-85
2023/07/17 20:19:59;;;;;;;9.30;3.60;;;;;;;23.64;41.12;100432.81;223597;1264;139833;-85
2023/07/17 20:24:59;;;;;;;10.90;4.00;;;;;;;23.57;41.66;100432.50;224115;1264;138274;-85
2023/07/17 20:30:00;;;;;;;9.10;3.70;;;;;;;23.47;41.63;100437.64;223629;1264;141568;-85
2023/07/17 20:35:00;;;;;;;12.60;4.20;;;;;;;23.39;41.64;100427.70;224127;1264;138816;-85
2023/07/17 20:40:04;;;;;;;12.70;4.30;;;;;;;23.31;42.06;100431.64;223561;1264;140156;-85
2023/07/17 20:45:05;;;;;;;9.40;4.20;;;;;;;23.22;42.32;100430.16;224055;1264;138432;-85
2023/07/17 20:50:07;;;;;;;8.50;3.60;;;;;;;23.12;42.46;100430.29;223572;1264;140746;-84
2023/07/17 20:55:07;;;;;;;7.90;3.30;;;;;;;22.99;42.95;100433.54;224241;1264;96353;-85
2023/07/17 21:00:10;;;;;;;7.70;3.60;;;;;;;22.85;43.27;100433.54;223605;1264;139942;-84
2023/07/17 21:05:11;;;;;;;11.20;3.80;;;;;;;22.76;43.41;100427.65;223867;1265;138517;-85
2023/07/17 21:10:11;;;;;;;9.30;3.20;;;;;;;22.68;43.71;100424.85;223530;1265;141659;-85
2023/07/17 21:15:11;;;;;;;11.40;3.90;;;;;;;22.61;43.71;100428.77;224102;1265;138117;-84
2023/07/17 21:20:12;;;;;;;9.50;3.60;;;;;;;22.51;43.77;100432.48;223523;1264;141334;-84
2023/07/17 21:25:13;;;;;;;10.60;4.00;;;;;;;22.45;43.86;100444.88;224183;1264;96405;-83
2023/07/17 21:30:14;;;;;;;9.20;3.50;;;;;;;22.41;43.74;100456.94;223507;1264;141247;-84
2023/07/17 21:35:15;;;;;;;12.70;3.80;;;;;;;22.40;43.92;100491.44;224042;1264;139912;-85
2023/07/17 21:40:15;;;;;;;9.30;3.60;;;;;;;22.38;45.16;100534.27;223345;1264;199580;-91
2023/07/17 21:45:16;;;;;;;11.50;3.60;;;;;;;22.14;49.96;100537.05;224057;1264;138245;-90
2023/07/17 21:50:17;;;;;;;10.40;3.60;;;;;;;21.80;53.75;100524.70;223507;1264;141422;-92
2023/07/17 21:55:17;;;;;;;11.20;3.80;;;;;;;21.57;56.01;100541.11;224208;1264;96303;-91
2023/07/17 22:00:18;;;;;;;7.60;3.40;;;;;;;21.37;58.84;100568.29;223447;1263;139911;-90
2023/07/17 22:05:18;;;;;;;9.20;3.40;;;;;;;21.21;60.77;100591.02;224055;1264;138459;-91
2023/07/17 22:10:19;;;;;;;9.70;4.50;;;;;;;20.99;62.04;100647.87;223490;1264;140097;-88
2023/07/17 22:15:19;;;;;;;11.50;4.40;;;;;;;20.83;63.96;100646.13;224107;1264;138409;-89
2023/07/17 22:20:20;;;;;;;10.30;4.00;;;;;;;20.57;65.72;100606.31;223621;1264;141304;-90
2023/07/17 22:25:20;;;;;;;12.80;5.00;;;;;;;20.31;66.92;100565.10;224137;1264;104278;-91
2023/07/17 22:30:21;;;;;;;10.30;4.60;;;;;;;20.17;68.77;100561.46;223592;1264;139930;-90
2023/07/17 22:35:21;;;;;;;9.70;4.50;;;;;;;20.08;69.81;100585.32;224080;1264;138500;-90
2023/07/17 22:40:22;;;;;;;10.40;4.40;;;;;;;19.98;71.11;100610.22;223604;1264;140690;-90
2023/07/17 22:45:22;;;;;;;10.70;4.30;;;;;;;19.87;70.76;100617.34;224096;1264;138195;-91